sensor_id;sensor_type;location;lat;lon;timestamp;temperature;humidity
60353;DHT22;46196;52.970;6.954;2022-11-20T00:01:48;-1.00;99.90
60353;DHT22;46196;52.970;6.954;2022-11-20T00:04:14;-1.00;99.90
60353;DHT22;46196;52.970;6.954;2022-11-20T00:06:39;-0.90;99.90
60353;DHT22;46196;52.970;6.954;2022-11-20T00:09:05;-0.90;99.90
60353;DHT22;46196;52.970;6.954;2022-11-20T00:11:31;-0.90;99.90
60353;DHT22;46196;52.970;6.954;2022-11-20T00:14:00;-0.80;99.90
60353;DHT22;46196;52.970;6.954;2022-11-20T00:16:27;-0.80;99.90
60353;DHT22;46196;52.970;6.954;2022-11-20T00:18:53;-0.80;99.90
60353;DHT22;46196;52.970;6.954;2022-11-20T00:21:24;-0.70;99.90
60353;DHT22;46196;52.970;6.954;2022-11-20T00:23:52;-0.70;99.90
60353;DHT22;46196;52.970;6.954;2022-11-20T00:26:19;-0.70;99.90
60353;DHT22;46196;52.970;6.954;2022-11-20T00:28:50;-0.70;99.90
60353;DHT22;46196;52.970;6.954;2022-11-20T00:31:16;-0.60;99.90
60353;DHT22;46196;52.970;6.954;2022-11-20T00:33:43;-0.60;99.90
60353;DHT22;46196;52.970;6.954;2022-11-20T00:36:17;-0.60;99.90
60353;DHT22;46196;52.970;6.954;2022-11-20T00:38:43;-0.60;99.90
60353;DHT22;46196;52.970;6.954;2022-11-20T00:41:12;-0.60;99.90
60353;DHT22;46196;52.970;6.954;2022-11-20T00:43:38;-0.50;99.90
60353;DHT22;46196;52.970;6.954;2022-11-20T00:46:06;-0.50;99.90
60353;DHT22;46196;52.970;6.954;2022-11-20T00:48:32;-0.50;99.90
60353;DHT22;46196;52.970;6.954;2022-11-20T00:50:58;-0.50;99.90
60353;DHT22;46196;52.970;6.954;2022-11-20T00:53:24;-0.40;99.90
60353;DHT22;46196;52.970;6.954;2022-11-20T00:58:20;-0.40;99.90
60353;DHT22;46196;52.970;6.954;2022-11-20T01:00:46;-0.40;99.90
60353;DHT22;46196;52.970;6.954;2022-11-20T01:03:11;-0.40;99.90
60353;DHT22;46196;52.970;6.954;2022-11-20T01:05:37;-0.40;99.90
60353;DHT22;46196;52.970;6.954;2022-11-20T01:08:03;-0.30;99.90
60353;DHT22;46196;52.970;6.954;2022-11-20T01:10:29;-0.40;99.90
60353;DHT22;46196;52.970;6.954;2022-11-20T01:12:55;-0.30;99.90
60353;DHT22;46196;52.970;6.954;2022-11-20T01:15:39;-0.30;99.90
60353;DHT22;46196;52.970;6.954;2022-11-20T01:18:04;-0.30;99.90
60353;DHT22;46196;52.970;6.954;2022-11-20T01:20:36;-0.20;99.90
60353;DHT22;46196;52.970;6.954;2022-11-20T01:23:03;-0.20;99.90
60353;DHT22;46196;52.970;6.954;2022-11-20T01:25:29;-0.30;99.90
60353;DHT22;46196;52.970;6.954;2022-11-20T01:27:55;-0.20;99.90
60353;DHT22;46196;52.970;6.954;2022-11-20T01:30:21;-0.20;99.90
60353;DHT22;46196;52.970;6.954;2022-11-20T01:32:47;-0.20;99.90
60353;DHT22;46196;52.970;6.954;2022-11-20T01:35:12;-0.20;99.90
60353;DHT22;46196;52.970;6.954;2022-11-20T01:37:38;-0.10;99.90
60353;DHT22;46196;52.970;6.954;2022-11-20T01:40:04;1.10;99.90
60353;DHT22;46196;52.970;6.954;2022-11-20T01:42:31;-0.10;99.90
60353;DHT22;46196;52.970;6.954;2022-11-20T01:45:56;1.20;99.90
60353;DHT22;46196;52.970;6.954;2022-11-20T01:48:23;-0.10;99.90
60353;DHT22;46196;52.970;6.954;2022-11-20T01:50:51;-0.10;99.90
60353;DHT22;46196;52.970;6.954;2022-11-20T01:53:20;-0.10;99.90
60353;DHT22;46196;52.970;6.954;2022-11-20T01:55:51;-0.10;99.90
60353;DHT22;46196;52.970;6.954;2022-11-20T01:58:21;-0.10;99.90
60353;DHT22;46196;52.970;6.954;2022-11-20T02:00:48;0.40;99.90
60353;DHT22;46196;52.970;6.954;2022-11-20T02:03:16;-0.10;99.90
60353;DHT22;46196;52.970;6.954;2022-11-20T02:08:41;-0.10;99.90
60353;DHT22;46196;52.970;6.954;2022-11-20T02:11:07;-0.10;99.90
60353;DHT22;46196;52.970;6.954;2022-11-20T02:13:33;-0.10;99.90
60353;DHT22;46196;52.970;6.954;2022-11-20T02:18:46;0.00;99.90
60353;DHT22;46196;52.970;6.954;2022-11-20T02:24:14;-0.10;99.90
60353;DHT22;46196;52.970;6.954;2022-11-20T02:29:17;0.00;99.90
60353;DHT22;46196;52.970;6.954;2022-11-20T02:31:45;0.00;99.90
60353;DHT22;46196;52.970;6.954;2022-11-20T02:34:10;0.00;99.90
60353;DHT22;46196;52.970;6.954;2022-11-20T02:36:38;0.00;99.90
60353;DHT22;46196;52.970;6.954;2022-11-20T02:39:05;0.00;99.90
60353;DHT22;46196;52.970;6.954;2022-11-20T02:41:33;0.00;99.90
60353;DHT22;46196;52.970;6.954;2022-11-20T02:43:59;0.00;99.90
60353;DHT22;46196;52.970;6.954;2022-11-20T02:46:25;0.00;99.90
60353;DHT22;46196;52.970;6.954;2022-11-20T02:48:50;0.00;99.90
60353;DHT22;46196;52.970;6.954;2022-11-20T02:51:16;0.00;99.90
60353;DHT22;46196;52.970;6.954;2022-11-20T02:53:41;0.00;99.90
60353;DHT22;46196;52.970;6.954;2022-11-20T02:56:07;0.00;99.90
60353;DHT22;46196;52.970;6.954;2022-11-20T02:58:33;0.00;99.90
60353;DHT22;46196;52.970;6.954;2022-11-20T03:00:59;0.00;99.90
60353;DHT22;46196;52.970;6.954;2022-11-20T03:03:25;0.00;99.90
60353;DHT22;46196;52.970;6.954;2022-11-20T03:05:50;0.00;99.90
60353;DHT22;46196;52.970;6.954;2022-11-20T03:08:16;0.00;99.90
60353;DHT22;46196;52.970;6.954;2022-11-20T03:10:42;0.00;99.90
60353;DHT22;46196;52.970;6.954;2022-11-20T03:13:07;0.00;99.90
60353;DHT22;46196;52.970;6.954;2022-11-20T03:15:35;0.00;99.90
60353;DHT22;46196;52.970;6.954;2022-11-20T03:18:01;0.00;99.90
60353;DHT22;46196;52.970;6.954;2022-11-20T03:20:27;0.00;99.90
60353;DHT22;46196;52.970;6.954;2022-11-20T03:22:53;0.10;99.90
60353;DHT22;46196;52.970;6.954;2022-11-20T03:25:20;0.10;99.90
60353;DHT22;46196;52.970;6.954;2022-11-20T03:27:45;0.10;99.90
60353;DHT22;46196;52.970;6.954;2022-11-20T03:30:11;0.10;99.90
60353;DHT22;46196;52.970;6.954;2022-11-20T03:32:37;0.10;99.90
60353;DHT22;46196;52.970;6.954;2022-11-20T03:35:03;0.10;99.90
60353;DHT22;46196;52.970;6.954;2022-11-20T03:37:29;0.20;99.90
60353;DHT22;46196;52.970;6.954;2022-11-20T03:39:55;0.10;99.90
60353;DHT22;46196;52.970;6.954;2022-11-20T03:42:20;0.10;99.90
60353;DHT22;46196;52.970;6.954;2022-11-20T03:45:18;0.10;99.90
60353;DHT22;46196;52.970;6.954;2022-11-20T03:47:45;0.20;99.90
60353;DHT22;46196;52.970;6.954;2022-11-20T03:50:12;0.20;99.90
60353;DHT22;46196;52.970;6.954;2022-11-20T03:52:39;0.20;99.90
60353;DHT22;46196;52.970;6.954;2022-11-20T03:55:06;0.20;99.90
60353;DHT22;46196;52.970;6.954;2022-11-20T03:57:32;0.20;99.90
60353;DHT22;46196;52.970;6.954;2022-11-20T03:59:58;0.20;99.90
60353;DHT22;46196;52.970;6.954;2022-11-20T04:02:23;0.20;99.90
60353;DHT22;46196;52.970;6.954;2022-11-20T04:04:49;0.20;99.90
60353;DHT22;46196;52.970;6.954;2022-11-20T04:07:15;0.20;99.90
60353;DHT22;46196;52.970;6.954;2022-11-20T04:09:41;0.30;99.90
60353;DHT22;46196;52.970;6.954;2022-11-20T04:12:06;0.20;99.90
60353;DHT22;46196;52.970;6.954;2022-11-20T04:14:32;0.20;99.90
60353;DHT22;46196;52.970;6.954;2022-11-20T04:16:58;0.20;99.90
60353;DHT22;46196;52.970;6.954;2022-11-20T04:19:24;0.20;99.90
60353;DHT22;46196;52.970;6.954;2022-11-20T04:21:49;0.20;99.90
60353;DHT22;46196;52.970;6.954;2022-11-20T04:24:15;0.30;99.90
60353;DHT22;46196;52.970;6.954;2022-11-20T04:26:41;0.30;99.90
60353;DHT22;46196;52.970;6.954;2022-11-20T04:29:09;0.20;99.90
60353;DHT22;46196;52.970;6.954;2022-11-20T04:31:35;0.30;99.90
60353;DHT22;46196;52.970;6.954;2022-11-20T04:34:04;0.30;99.90
60353;DHT22;46196;52.970;6.954;2022-11-20T04:36:30;0.30;99.90
60353;DHT22;46196;52.970;6.954;2022-11-20T04:38:58;0.30;99.90
60353;DHT22;46196;52.970;6.954;2022-11-20T04:41:29;0.30;99.90
60353;DHT22;46196;52.970;6.954;2022-11-20T04:43:57;0.30;99.90
60353;DHT22;46196;52.970;6.954;2022-11-20T04:46:32;0.30;99.90
60353;DHT22;46196;52.970;6.954;2022-11-20T04:48:59;0.30;99.90
60353;DHT22;46196;52.970;6.954;2022-11-20T04:51:25;0.30;99.90
60353;DHT22;46196;52.970;6.954;2022-11-20T04:53:51;0.30;99.90
60353;DHT22;46196;52.970;6.954;2022-11-20T04:56:17;0.30;99.90
60353;DHT22;46196;52.970;6.954;2022-11-20T04:58:43;1.20;99.90
60353;DHT22;46196;52.970;6.954;2022-11-20T05:01:17;0.30;99.90
60353;DHT22;46196;52.970;6.954;2022-11-20T05:03:44;0.30;99.90
60353;DHT22;46196;52.970;6.954;2022-11-20T05:06:15;0.30;99.90
60353;DHT22;46196;52.970;6.954;2022-11-20T05:08:41;0.40;99.90
60353;DHT22;46196;52.970;6.954;2022-11-20T05:11:15;0.40;99.90
60353;DHT22;46196;52.970;6.954;2022-11-20T05:13:42;0.40;99.90
60353;DHT22;46196;52.970;6.954;2022-11-20T05:16:10;0.40;99.90
60353;DHT22;46196;52.970;6.954;2022-11-20T05:18:37;0.40;99.90
60353;DHT22;46196;52.970;6.954;2022-11-20T05:21:03;0.40;99.90
60353;DHT22;46196;52.970;6.954;2022-11-20T05:23:31;0.40;99.90
60353;DHT22;46196;52.970;6.954;2022-11-20T05:25:57;0.40;99.90
60353;DHT22;46196;52.970;6.954;2022-11-20T05:28:24;0.40;99.90
60353;DHT22;46196;52.970;6.954;2022-11-20T05:30:50;0.40;99.90
60353;DHT22;46196;52.970;6.954;2022-11-20T05:33:16;0.40;99.90
60353;DHT22;46196;52.970;6.954;2022-11-20T05:35:42;0.40;99.90
60353;DHT22;46196;52.970;6.954;2022-11-20T05:38:08;0.40;99.90
60353;DHT22;46196;52.970;6.954;2022-11-20T05:40:34;0.40;99.90
60353;DHT22;46196;52.970;6.954;2022-11-20T05:43:00;0.40;99.90
60353;DHT22;46196;52.970;6.954;2022-11-20T05:45:26;0.40;99.90
60353;DHT22;46196;52.970;6.954;2022-11-20T05:47:52;0.40;99.90
60353;DHT22;46196;52.970;6.954;2022-11-20T05:50:18;0.40;99.90
60353;DHT22;46196;52.970;6.954;2022-11-20T05:52:43;0.40;99.90
60353;DHT22;46196;52.970;6.954;2022-11-20T05:55:09;0.40;99.90
60353;DHT22;46196;52.970;6.954;2022-11-20T05:57:35;0.40;99.90
60353;DHT22;46196;52.970;6.954;2022-11-20T06:00:02;0.40;99.90
60353;DHT22;46196;52.970;6.954;2022-11-20T06:02:28;0.40;99.90
60353;DHT22;46196;52.970;6.954;2022-11-20T06:04:53;0.40;99.90
60353;DHT22;46196;52.970;6.954;2022-11-20T06:07:19;0.40;99.90
60353;DHT22;46196;52.970;6.954;2022-11-20T06:09:45;0.40;99.90
60353;DHT22;46196;52.970;6.954;2022-11-20T06:12:10;0.40;99.90
60353;DHT22;46196;52.970;6.954;2022-11-20T06:14:36;0.40;99.90
60353;DHT22;46196;52.970;6.954;2022-11-20T06:17:02;0.50;99.90
60353;DHT22;46196;52.970;6.954;2022-11-20T06:19:28;0.40;99.90
60353;DHT22;46196;52.970;6.954;2022-11-20T06:21:54;1.50;99.90
60353;DHT22;46196;52.970;6.954;2022-11-20T06:24:19;0.50;99.90
60353;DHT22;46196;52.970;6.954;2022-11-20T06:26:45;0.40;99.90
60353;DHT22;46196;52.970;6.954;2022-11-20T06:29:11;0.40;99.90
60353;DHT22;46196;52.970;6.954;2022-11-20T06:31:37;0.40;99.90
60353;DHT22;46196;52.970;6.954;2022-11-20T06:34:04;0.40;99.90
60353;DHT22;46196;52.970;6.954;2022-11-20T06:36:31;0.40;99.90
60353;DHT22;46196;52.970;6.954;2022-11-20T06:38:57;0.50;99.90
60353;DHT22;46196;52.970;6.954;2022-11-20T06:41:23;0.40;99.90
60353;DHT22;46196;52.970;6.954;2022-11-20T06:43:49;0.40;99.90
60353;DHT22;46196;52.970;6.954;2022-11-20T06:46:17;0.40;99.90
60353;DHT22;46196;52.970;6.954;2022-11-20T06:48:44;0.40;99.90
60353;DHT22;46196;52.970;6.954;2022-11-20T06:51:11;0.50;99.90
60353;DHT22;46196;52.970;6.954;2022-11-20T06:53:37;0.50;99.90
60353;DHT22;46196;52.970;6.954;2022-11-20T06:56:03;0.40;99.90
60353;DHT22;46196;52.970;6.954;2022-11-20T06:58:31;0.50;99.90
60353;DHT22;46196;52.970;6.954;2022-11-20T07:01:10;0.50;99.90
60353;DHT22;46196;52.970;6.954;2022-11-20T07:03:36;0.50;99.90
60353;DHT22;46196;52.970;6.954;2022-11-20T07:06:02;0.50;99.90
60353;DHT22;46196;52.970;6.954;2022-11-20T07:08:29;0.50;99.90
60353;DHT22;46196;52.970;6.954;2022-11-20T07:10:59;0.50;99.90
60353;DHT22;46196;52.970;6.954;2022-11-20T07:13:26;0.50;99.90
60353;DHT22;46196;52.970;6.954;2022-11-20T07:15:52;0.50;99.90
60353;DHT22;46196;52.970;6.954;2022-11-20T07:18:18;0.50;99.90
60353;DHT22;46196;52.970;6.954;2022-11-20T07:20:44;0.50;99.90
60353;DHT22;46196;52.970;6.954;2022-11-20T07:23:10;0.50;99.90
60353;DHT22;46196;52.970;6.954;2022-11-20T07:25:35;0.50;99.90
60353;DHT22;46196;52.970;6.954;2022-11-20T07:28:01;0.50;99.90
60353;DHT22;46196;52.970;6.954;2022-11-20T07:30:27;1.30;99.90
60353;DHT22;46196;52.970;6.954;2022-11-20T07:32:54;0.50;99.90
60353;DHT22;46196;52.970;6.954;2022-11-20T07:35:21;1.30;99.90
60353;DHT22;46196;52.970;6.954;2022-11-20T07:37:47;0.50;99.90
60353;DHT22;46196;52.970;6.954;2022-11-20T07:40:14;0.50;99.90
60353;DHT22;46196;52.970;6.954;2022-11-20T07:42:50;0.60;99.90
60353;DHT22;46196;52.970;6.954;2022-11-20T07:45:17;0.60;99.90
60353;DHT22;46196;52.970;6.954;2022-11-20T07:47:43;0.60;99.90
60353;DHT22;46196;52.970;6.954;2022-11-20T07:50:10;0.60;99.90
60353;DHT22;46196;52.970;6.954;2022-11-20T07:52:36;0.60;99.90
60353;DHT22;46196;52.970;6.954;2022-11-20T07:55:02;0.60;99.90
60353;DHT22;46196;52.970;6.954;2022-11-20T07:57:27;0.70;99.90
60353;DHT22;46196;52.970;6.954;2022-11-20T07:59:53;0.90;99.90
60353;DHT22;46196;52.970;6.954;2022-11-20T08:02:19;0.70;99.90
60353;DHT22;46196;52.970;6.954;2022-11-20T08:04:44;0.70;99.90
60353;DHT22;46196;52.970;6.954;2022-11-20T08:07:10;0.70;99.90
60353;DHT22;46196;52.970;6.954;2022-11-20T08:09:36;0.70;99.90
60353;DHT22;46196;52.970;6.954;2022-11-20T08:12:02;0.70;99.90
60353;DHT22;46196;52.970;6.954;2022-11-20T08:14:46;0.80;99.90
60353;DHT22;46196;52.970;6.954;2022-11-20T08:17:11;0.80;99.90
60353;DHT22;46196;52.970;6.954;2022-11-20T08:19:38;0.80;99.90
60353;DHT22;46196;52.970;6.954;2022-11-20T08:22:03;0.70;99.90
60353;DHT22;46196;52.970;6.954;2022-11-20T08:24:29;0.80;99.90
60353;DHT22;46196;52.970;6.954;2022-11-20T08:26:57;0.80;99.90
60353;DHT22;46196;52.970;6.954;2022-11-20T08:29:23;0.90;99.90
60353;DHT22;46196;52.970;6.954;2022-11-20T08:31:49;0.80;99.90
60353;DHT22;46196;52.970;6.954;2022-11-20T08:34:15;0.80;99.90
60353;DHT22;46196;52.970;6.954;2022-11-20T08:36:40;0.90;99.90
60353;DHT22;46196;52.970;6.954;2022-11-20T08:39:06;0.90;99.90
60353;DHT22;46196;52.970;6.954;2022-11-20T08:41:32;0.90;99.90
60353;DHT22;46196;52.970;6.954;2022-11-20T08:44:00;0.90;99.90
60353;DHT22;46196;52.970;6.954;2022-11-20T08:46:32;0.90;99.90
60353;DHT22;46196;52.970;6.954;2022-11-20T08:49:10;0.90;99.90
60353;DHT22;46196;52.970;6.954;2022-11-20T08:51:36;0.90;99.90
60353;DHT22;46196;52.970;6.954;2022-11-20T08:54:03;1.00;99.90
60353;DHT22;46196;52.970;6.954;2022-11-20T08:56:29;0.90;99.90
60353;DHT22;46196;52.970;6.954;2022-11-20T08:58:55;1.00;99.90
60353;DHT22;46196;52.970;6.954;2022-11-20T09:01:22;1.00;99.90
60353;DHT22;46196;52.970;6.954;2022-11-20T09:03:49;1.00;99.90
60353;DHT22;46196;52.970;6.954;2022-11-20T09:06:15;1.00;99.90
60353;DHT22;46196;52.970;6.954;2022-11-20T09:08:41;1.00;99.90
60353;DHT22;46196;52.970;6.954;2022-11-20T09:11:07;1.00;99.90
60353;DHT22;46196;52.970;6.954;2022-11-20T09:13:35;1.10;99.90
60353;DHT22;46196;52.970;6.954;2022-11-20T09:16:06;1.20;99.90
60353;DHT22;46196;52.970;6.954;2022-11-20T09:18:34;1.20;99.90
60353;DHT22;46196;52.970;6.954;2022-11-20T09:21:10;1.30;99.90
60353;DHT22;46196;52.970;6.954;2022-11-20T09:23:37;1.30;99.90
60353;DHT22;46196;52.970;6.954;2022-11-20T09:26:05;1.30;99.90
60353;DHT22;46196;52.970;6.954;2022-11-20T09:28:31;1.30;99.90
60353;DHT22;46196;52.970;6.954;2022-11-20T09:30:57;1.40;99.90
60353;DHT22;46196;52.970;6.954;2022-11-20T09:33:23;1.30;99.90
60353;DHT22;46196;52.970;6.954;2022-11-20T09:35:49;2.60;99.90
60353;DHT22;46196;52.970;6.954;2022-11-20T09:38:15;1.40;99.90
60353;DHT22;46196;52.970;6.954;2022-11-20T09:40:47;1.40;99.90
60353;DHT22;46196;52.970;6.954;2022-11-20T09:43:29;1.40;99.90
60353;DHT22;46196;52.970;6.954;2022-11-20T09:46:25;1.50;99.90
60353;DHT22;46196;52.970;6.954;2022-11-20T09:54:33;1.50;99.90
60353;DHT22;46196;52.970;6.954;2022-11-20T09:57:11;1.50;99.90
60353;DHT22;46196;52.970;6.954;2022-11-20T09:59:38;1.60;99.90
60353;DHT22;46196;52.970;6.954;2022-11-20T10:04:46;1.70;99.90
60353;DHT22;46196;52.970;6.954;2022-11-20T10:07:30;1.70;99.90
60353;DHT22;46196;52.970;6.954;2022-11-20T10:09:57;1.80;99.90
60353;DHT22;46196;52.970;6.954;2022-11-20T10:15:12;1.80;99.90
60353;DHT22;46196;52.970;6.954;2022-11-20T10:18:23;1.90;99.90
60353;DHT22;46196;52.970;6.954;2022-11-20T10:26:22;2.00;99.90
60353;DHT22;46196;52.970;6.954;2022-11-20T10:29:05;2.00;99.90
60353;DHT22;46196;52.970;6.954;2022-11-20T10:31:35;2.00;99.90
60353;DHT22;46196;52.970;6.954;2022-11-20T10:37:11;2.10;99.90
60353;DHT22;46196;52.970;6.954;2022-11-20T10:39:44;2.20;99.90
60353;DHT22;46196;52.970;6.954;2022-11-20T10:42:17;2.20;99.90
60353;DHT22;46196;52.970;6.954;2022-11-20T10:44:51;2.20;99.90
60353;DHT22;46196;52.970;6.954;2022-11-20T10:47:30;3.00;99.90
60353;DHT22;46196;52.970;6.954;2022-11-20T10:50:00;2.30;99.90
60353;DHT22;46196;52.970;6.954;2022-11-20T10:58:07;2.50;99.90
60353;DHT22;46196;52.970;6.954;2022-11-20T11:00:35;2.60;99.90
60353;DHT22;46196;52.970;6.954;2022-11-20T11:03:01;2.60;99.90
60353;DHT22;46196;52.970;6.954;2022-11-20T11:05:43;2.70;99.90
60353;DHT22;46196;52.970;6.954;2022-11-20T11:08:16;2.70;99.90
60353;DHT22;46196;52.970;6.954;2022-11-20T11:13:21;2.90;99.90
60353;DHT22;46196;52.970;6.954;2022-11-20T11:15:48;2.70;99.90
60353;DHT22;46196;52.970;6.954;2022-11-20T11:18:24;2.70;99.90
60353;DHT22;46196;52.970;6.954;2022-11-20T11:20:51;2.80;99.90
60353;DHT22;46196;52.970;6.954;2022-11-20T11:23:33;2.80;99.90
60353;DHT22;46196;52.970;6.954;2022-11-20T11:26:01;4.00;99.90
60353;DHT22;46196;52.970;6.954;2022-11-20T11:28:27;2.90;99.90
60353;DHT22;46196;52.970;6.954;2022-11-20T11:30:54;2.90;99.90
60353;DHT22;46196;52.970;6.954;2022-11-20T11:33:25;2.90;99.90
60353;DHT22;46196;52.970;6.954;2022-11-20T11:35:57;2.90;99.90
60353;DHT22;46196;52.970;6.954;2022-11-20T11:38:40;2.90;99.90
60353;DHT22;46196;52.970;6.954;2022-11-20T11:41:12;2.90;99.90
60353;DHT22;46196;52.970;6.954;2022-11-20T11:43:51;2.80;99.90
60353;DHT22;46196;52.970;6.954;2022-11-20T11:46:36;2.80;99.90
60353;DHT22;46196;52.970;6.954;2022-11-20T11:54:34;2.70;99.90
60353;DHT22;46196;52.970;6.954;2022-11-20T11:57:04;2.70;99.90
60353;DHT22;46196;52.970;6.954;2022-11-20T11:59:47;2.80;99.90
60353;DHT22;46196;52.970;6.954;2022-11-20T12:05:00;2.80;99.90
60353;DHT22;46196;52.970;6.954;2022-11-20T12:07:47;2.80;99.90
60353;DHT22;46196;52.970;6.954;2022-11-20T12:12:48;2.80;99.90
60353;DHT22;46196;52.970;6.954;2022-11-20T12:15:25;2.90;99.90
60353;DHT22;46196;52.970;6.954;2022-11-20T12:17:51;2.90;99.90
60353;DHT22;46196;52.970;6.954;2022-11-20T12:20:17;2.90;99.90
60353;DHT22;46196;52.970;6.954;2022-11-20T12:23:02;3.60;99.90
60353;DHT22;46196;52.970;6.954;2022-11-20T12:25:34;2.90;99.90
60353;DHT22;46196;52.970;6.954;2022-11-20T12:37:26;3.00;99.90
60353;DHT22;46196;52.970;6.954;2022-11-20T12:39:58;3.00;99.90
60353;DHT22;46196;52.970;6.954;2022-11-20T12:43:11;3.10;99.90
60353;DHT22;46196;52.970;6.954;2022-11-20T12:46:03;3.10;99.90
60353;DHT22;46196;52.970;6.954;2022-11-20T13:01:56;3.90;99.90
60353;DHT22;46196;52.970;6.954;2022-11-20T13:07:13;3.90;99.90
60353;DHT22;46196;52.970;6.954;2022-11-20T13:09:47;3.90;99.90
60353;DHT22;46196;52.970;6.954;2022-11-20T13:12:25;3.90;99.90
60353;DHT22;46196;52.970;6.954;2022-11-20T13:15:08;3.90;99.90
60353;DHT22;46196;52.970;6.954;2022-11-20T13:20:17;4.00;99.90
60353;DHT22;46196;52.970;6.954;2022-11-20T13:22:54;4.10;99.90
60353;DHT22;46196;52.970;6.954;2022-11-20T13:27:56;4.40;99.90
60353;DHT22;46196;52.970;6.954;2022-11-20T13:30:24;4.20;99.90
60353;DHT22;46196;52.970;6.954;2022-11-20T13:32:55;4.20;99.90
60353;DHT22;46196;52.970;6.954;2022-11-20T13:35:33;4.20;99.90
60353;DHT22;46196;52.970;6.954;2022-11-20T13:38:10;4.20;99.90
60353;DHT22;46196;52.970;6.954;2022-11-20T13:40:39;4.20;99.90
60353;DHT22;46196;52.970;6.954;2022-11-20T13:46:02;4.10;99.90
60353;DHT22;46196;52.970;6.954;2022-11-20T13:48:49;4.10;99.90
60353;DHT22;46196;52.970;6.954;2022-11-20T13:59:42;4.00;99.90
60353;DHT22;46196;52.970;6.954;2022-11-20T14:02:14;4.00;99.90
60353;DHT22;46196;52.970;6.954;2022-11-20T14:04:45;4.00;99.90
60353;DHT22;46196;52.970;6.954;2022-11-20T14:07:11;4.00;99.90
60353;DHT22;46196;52.970;6.954;2022-11-20T14:09:37;3.90;99.90
60353;DHT22;46196;52.970;6.954;2022-11-20T14:12:12;3.90;99.90
60353;DHT22;46196;52.970;6.954;2022-11-20T14:14:48;3.80;99.90
60353;DHT22;46196;52.970;6.954;2022-11-20T14:17:31;3.80;99.90
60353;DHT22;46196;52.970;6.954;2022-11-20T14:20:20;3.80;99.90
60353;DHT22;46196;52.970;6.954;2022-11-20T14:22:53;3.80;99.90
60353;DHT22;46196;52.970;6.954;2022-11-20T14:25:24;3.80;99.90
60353;DHT22;46196;52.970;6.954;2022-11-20T14:27:57;3.70;99.90
60353;DHT22;46196;52.970;6.954;2022-11-20T14:30:43;3.60;99.90
60353;DHT22;46196;52.970;6.954;2022-11-20T14:33:10;3.60;99.90
60353;DHT22;46196;52.970;6.954;2022-11-20T14:35:44;3.50;99.90
60353;DHT22;46196;52.970;6.954;2022-11-20T14:38:13;3.50;99.90
60353;DHT22;46196;52.970;6.954;2022-11-20T14:40:40;3.40;99.90
60353;DHT22;46196;52.970;6.954;2022-11-20T14:43:18;3.30;99.90
60353;DHT22;46196;52.970;6.954;2022-11-20T14:45:46;3.20;99.90
60353;DHT22;46196;52.970;6.954;2022-11-20T14:48:14;3.20;99.90
60353;DHT22;46196;52.970;6.954;2022-11-20T14:50:40;3.10;99.90
60353;DHT22;46196;52.970;6.954;2022-11-20T14:53:06;3.00;99.90
60353;DHT22;46196;52.970;6.954;2022-11-20T14:55:35;3.00;99.90
60353;DHT22;46196;52.970;6.954;2022-11-20T14:58:06;2.90;99.90
60353;DHT22;46196;52.970;6.954;2022-11-20T15:00:33;2.90;99.90
60353;DHT22;46196;52.970;6.954;2022-11-20T15:02:59;2.80;99.90
60353;DHT22;46196;52.970;6.954;2022-11-20T15:05:44;2.80;99.90
60353;DHT22;46196;52.970;6.954;2022-11-20T15:08:12;2.80;99.90
60353;DHT22;46196;52.970;6.954;2022-11-20T15:10:38;3.60;99.90
60353;DHT22;46196;52.970;6.954;2022-11-20T15:13:36;2.70;99.90
60353;DHT22;46196;52.970;6.954;2022-11-20T15:16:08;2.60;99.90
60353;DHT22;46196;52.970;6.954;2022-11-20T15:18:40;2.60;99.90
60353;DHT22;46196;52.970;6.954;2022-11-20T15:21:14;2.60;99.90
60353;DHT22;46196;52.970;6.954;2022-11-20T15:23:41;2.50;99.90
60353;DHT22;46196;52.970;6.954;2022-11-20T15:26:08;3.20;99.90
60353;DHT22;46196;52.970;6.954;2022-11-20T15:28:40;2.40;99.90
60353;DHT22;46196;52.970;6.954;2022-11-20T15:31:09;2.40;99.90
60353;DHT22;46196;52.970;6.954;2022-11-20T15:33:36;2.30;99.90
60353;DHT22;46196;52.970;6.954;2022-11-20T15:36:02;3.50;99.90
60353;DHT22;46196;52.970;6.954;2022-11-20T15:38:28;2.30;99.90
60353;DHT22;46196;52.970;6.954;2022-11-20T15:40:54;2.20;99.90
60353;DHT22;46196;52.970;6.954;2022-11-20T15:43:20;2.20;99.90
60353;DHT22;46196;52.970;6.954;2022-11-20T15:45:49;2.20;99.90
60353;DHT22;46196;52.970;6.954;2022-11-20T15:48:26;2.20;99.90
60353;DHT22;46196;52.970;6.954;2022-11-20T15:50:58;2.10;99.90
60353;DHT22;46196;52.970;6.954;2022-11-20T15:53:24;2.10;99.90
60353;DHT22;46196;52.970;6.954;2022-11-20T15:55:49;2.50;99.90
60353;DHT22;46196;52.970;6.954;2022-11-20T15:58:15;2.10;99.90
60353;DHT22;46196;52.970;6.954;2022-11-20T16:00:44;2.10;99.90
60353;DHT22;46196;52.970;6.954;2022-11-20T16:03:11;2.10;99.90
60353;DHT22;46196;52.970;6.954;2022-11-20T16:05:37;2.10;99.90
60353;DHT22;46196;52.970;6.954;2022-11-20T16:08:03;2.10;99.90
60353;DHT22;46196;52.970;6.954;2022-11-20T16:10:29;2.10;99.90
60353;DHT22;46196;52.970;6.954;2022-11-20T16:12:55;2.10;99.90
60353;DHT22;46196;52.970;6.954;2022-11-20T16:15:39;2.00;99.90
60353;DHT22;46196;52.970;6.954;2022-11-20T16:18:12;2.10;99.90
60353;DHT22;46196;52.970;6.954;2022-11-20T16:20:39;3.10;99.90
60353;DHT22;46196;52.970;6.954;2022-11-20T16:23:05;2.00;99.90
60353;DHT22;46196;52.970;6.954;2022-11-20T16:25:31;2.10;99.90
60353;DHT22;46196;52.970;6.954;2022-11-20T16:27:57;2.00;99.90
60353;DHT22;46196;52.970;6.954;2022-11-20T16:30:23;2.00;99.90
60353;DHT22;46196;52.970;6.954;2022-11-20T16:32:49;2.00;99.90
60353;DHT22;46196;52.970;6.954;2022-11-20T16:35:15;1.90;99.90
60353;DHT22;46196;52.970;6.954;2022-11-20T16:37:41;1.90;99.90
60353;DHT22;46196;52.970;6.954;2022-11-20T16:40:09;1.90;99.90
60353;DHT22;46196;52.970;6.954;2022-11-20T16:42:36;1.90;99.90
60353;DHT22;46196;52.970;6.954;2022-11-20T16:45:03;1.90;99.90
60353;DHT22;46196;52.970;6.954;2022-11-20T16:47:33;1.90;99.90
60353;DHT22;46196;52.970;6.954;2022-11-20T16:49:59;1.90;99.90
60353;DHT22;46196;52.970;6.954;2022-11-20T16:52:25;1.90;99.90
60353;DHT22;46196;52.970;6.954;2022-11-20T16:54:51;1.90;99.90
60353;DHT22;46196;52.970;6.954;2022-11-20T16:57:17;0.90;99.90
60353;DHT22;46196;52.970;6.954;2022-11-20T16:59:42;1.90;99.90
60353;DHT22;46196;52.970;6.954;2022-11-20T17:02:09;1.90;99.90
60353;DHT22;46196;52.970;6.954;2022-11-20T17:04:35;1.90;99.90
60353;DHT22;46196;52.970;6.954;2022-11-20T17:07:01;1.90;99.90
60353;DHT22;46196;52.970;6.954;2022-11-20T17:09:28;1.90;99.90
60353;DHT22;46196;52.970;6.954;2022-11-20T17:11:53;1.90;99.90
60353;DHT22;46196;52.970;6.954;2022-11-20T17:14:19;2.00;99.90
60353;DHT22;46196;52.970;6.954;2022-11-20T17:16:45;1.90;99.90
60353;DHT22;46196;52.970;6.954;2022-11-20T17:19:11;1.90;99.90
60353;DHT22;46196;52.970;6.954;2022-11-20T17:21:37;1.90;99.90
60353;DHT22;46196;52.970;6.954;2022-11-20T17:24:06;1.90;99.90
60353;DHT22;46196;52.970;6.954;2022-11-20T17:26:32;1.90;99.90
60353;DHT22;46196;52.970;6.954;2022-11-20T17:29:10;1.90;99.90
60353;DHT22;46196;52.970;6.954;2022-11-20T17:31:37;1.90;99.90